»·PEaware :: N92120 KBFI-KBLI

N92120 :: KBFI-KBLI

FLIGHT INFORMATION

Flight Status: Arrived
Operator: Privately registered:
United States
More flights under this callsign
Pilot: Jason W. (28011)
Aircraft: CESSNA 182 SKYLANE
(C182)
More flights by this aircraft type
Origin: KBFI Boeing Field/King Co Intl
United States
Destination: KBLI Bellingham Intl
United States
More flights between these airports :: More routes between these airports
Route: CBAIN1 PAE HUH
File this flight plan on PilotEdge
Remarks:
Altitude:
(Current/Filed)
4,000ft
Speed:
(Current/Filed)
140kts
Departed: 11-Dec-22 11:56 AM
Arrived: 11-Dec-22 12:35 PM
Distance/Time
Traveled:
76nm/0:38
Distance/Time
To Go:
Arrived

Flight Plot

Page will automatically refresh every two minutes.

Flight plan parsing failed; only flown route is shown


Map Options




Map Legend


Flown Route
Filed Route
Departure Airport
Arrival Airport
Navaid (VOR, NDB)
Fix

Horizontal Profiles

Position Reports

Time Latitude Longitude Heading Altitude Ground
Speed
11-Dec-22 11:38 47.526911 -122.302095 331 16ft 0kts
11-Dec-22 11:39 47.526911 -122.302095 331 16ft 0kts
11-Dec-22 11:40 47.526911 -122.302095 331 16ft 0kts
11-Dec-22 11:41 47.526911 -122.302095 331 16ft 0kts
11-Dec-22 11:42 47.526911 -122.302095 331 16ft 0kts
11-Dec-22 11:43 47.526911 -122.302095 331 16ft 0kts
11-Dec-22 11:44 47.526911 -122.302095 331 16ft 0kts
11-Dec-22 11:45 47.526911 -122.302095 331 16ft 0kts
11-Dec-22 11:46 47.526911 -122.302095 331 16ft 0kts
11-Dec-22 11:47 47.526911 -122.302095 331 16ft 0kts
11-Dec-22 11:48 47.526492 -122.301685 77 16ft 0kts
11-Dec-22 11:49 47.526066 -122.300615 149 17ft 16kts
11-Dec-22 11:50 47.519478 -122.295151 152 19ft 27kts
11-Dec-22 11:51 47.516726 -122.292701 84 20ft 0kts
11-Dec-22 11:52 47.516726 -122.292701 84 20ft 0kts
11-Dec-22 11:53 47.516726 -122.292701 84 20ft 0kts
11-Dec-22 11:54 47.516726 -122.292701 84 20ft 0kts
11-Dec-22 11:55 47.516725 -122.292699 85 20ft 0kts
11-Dec-22 11:56 47.519713 -122.293710 331 22ft 69kts
11-Dec-22 11:56 47.532819 -122.306842 286 982ft 58kts
11-Dec-22 11:57 47.555284 -122.324747 334 1434ft 107kts
11-Dec-22 11:59 47.587181 -122.351175 330 1435ft 114kts
11-Dec-22 12:00 47.608252 -122.384997 311 2282ft 103kts
11-Dec-22 12:00 47.625126 -122.408783 350 3051ft 102kts
11-Dec-22 12:01 47.652928 -122.398209 16 3829ft 115kts
11-Dec-22 12:02 47.688191 -122.382021 16 3835ft 141kts
11-Dec-22 12:04 47.732312 -122.362164 16 3834ft 142kts
11-Dec-22 12:04 47.763932 -122.347931 15 3834ft 142kts
11-Dec-22 12:05 47.801601 -122.330955 15 3834ft 142kts
11-Dec-22 12:06 47.839306 -122.313936 15 3834ft 141kts
11-Dec-22 12:07 47.876923 -122.296932 15 3834ft 141kts
11-Dec-22 12:08 47.914467 -122.279940 15 3834ft 141kts
11-Dec-22 12:09 47.952721 -122.287277 350 3834ft 140kts
11-Dec-22 12:10 47.991089 -122.298110 349 3834ft 140kts
11-Dec-22 12:11 48.029526 -122.309215 349 3837ft 140kts
11-Dec-22 12:12 48.067823 -122.320153 349 3841ft 140kts
11-Dec-22 12:13 48.106094 -122.331201 348 3847ft 140kts
11-Dec-22 12:14 48.144444 -122.342328 348 3851ft 140kts
11-Dec-22 12:15 48.182844 -122.353494 348 3854ft 141kts
11-Dec-22 12:16 48.221294 -122.364692 348 3853ft 141kts
11-Dec-22 12:17 48.259934 -122.375961 349 3853ft 141kts
11-Dec-22 12:18 48.297600 -122.393372 340 3853ft 142kts
11-Dec-22 12:19 48.334966 -122.413240 341 3855ft 142kts
11-Dec-22 12:20 48.372227 -122.432699 341 3857ft 142kts
11-Dec-22 12:21 48.409424 -122.452128 341 3859ft 141kts
11-Dec-22 12:22 48.446596 -122.471575 341 3861ft 141kts
11-Dec-22 12:23 48.483504 -122.490906 341 3771ft 141kts
11-Dec-22 12:24 48.520606 -122.510415 341 3170ft 140kts
11-Dec-22 12:25 48.555847 -122.531520 338 2859ft 127kts
11-Dec-22 12:26 48.589473 -122.536776 0 2858ft 120kts
11-Dec-22 12:27 48.622861 -122.536856 0 2855ft 120kts
11-Dec-22 12:28 48.653053 -122.537015 0 2798ft 100kts
11-Dec-22 12:29 48.680408 -122.537089 0 2235ft 93kts
11-Dec-22 12:30 48.704596 -122.537186 0 1755ft 82kts
11-Dec-22 12:31 48.727152 -122.537272 0 1313ft 80kts
11-Dec-22 12:32 48.749551 -122.537353 1 875ft 81kts
11-Dec-22 12:33 48.772284 -122.537444 1 432ft 82kts
11-Dec-22 12:34 48.787653 -122.537360 3 167ft 19kts

Navigation Log

Ident Type
Flight plan parsing failed, navigation log unavailable